createdAt,value
2019-04-16T00:00:27.296Z,91.4076
2019-04-16T00:01:30.306Z,89.6635
2019-04-16T00:02:33.294Z,89.8177
2019-04-16T00:03:36.326Z,91.1696
2019-04-16T00:04:39.300Z,91.0964
2019-04-16T00:05:42.284Z,90.7622
2019-04-16T00:06:45.316Z,88.8716
2019-04-16T00:07:49.332Z,88.2765
2019-04-16T00:08:54.171Z,86.9291
2019-04-16T00:10:00.066Z,89.1508
2019-04-16T00:11:04.220Z,89.4942
2019-04-16T00:12:08.114Z,89.5171
2019-04-16T00:13:41.147Z,89.3477
2019-04-16T00:14:43.464Z,89.2409
2019-04-16T00:15:46.355Z,89.6758
2019-04-16T00:16:49.320Z,89.0761
2019-04-16T00:17:52.302Z,86.6819
2019-04-16T00:18:57.921Z,84.7044
2019-04-16T00:20:05.873Z,85.4185
2019-04-16T00:21:10.772Z,84.8783
2019-04-16T00:22:15.073Z,85.4047
2019-04-16T00:23:19.064Z,85.2125
2019-04-16T00:24:23.129Z,85.8488
2019-04-16T00:25:27.053Z,87.8370
2019-04-16T00:26:31.119Z,87.7958
2019-04-16T00:27:35.692Z,86.2028
2019-04-16T00:28:38.310Z,86.8513
2019-04-16T00:29:42.681Z,87.3549
2019-04-16T00:30:46.122Z,86.5644
2019-04-16T00:31:51.321Z,85.3651
2019-04-16T00:32:55.079Z,86.3767
2019-04-16T00:33:59.129Z,85.8030
2019-04-16T00:35:03.177Z,85.2583
2019-04-16T00:36:07.128Z,85.2644
2019-04-16T00:37:11.050Z,85.8412
2019-04-16T00:38:16.962Z,85.7984
2019-04-16T00:39:24.368Z,86.4134
2019-04-16T00:40:28.927Z,85.6901
2019-04-16T00:41:32.328Z,86.3020
2019-04-16T00:42:35.314Z,86.5904
2019-04-16T00:43:38.303Z,86.5141
2019-04-16T00:44:41.300Z,86.7658
2019-04-16T00:45:44.294Z,87.7409
2019-04-16T00:46:47.299Z,88.0827
2019-04-16T00:47:51.425Z,87.5517
2019-04-16T00:48:55.299Z,87.4830
2019-04-16T00:49:58.831Z,87.3365
2019-04-16T00:51:02.309Z,85.8595
2019-04-16T00:52:06.925Z,86.5736
2019-04-16T00:53:10.286Z,86.9764
2019-04-16T00:54:13.321Z,87.8645
2019-04-16T00:55:16.324Z,88.8243
2019-04-16T00:56:19.315Z,89.1814
2019-04-16T00:57:22.328Z,88.9342
2019-04-16T00:58:25.287Z,89.9825
2019-04-16T00:59:28.312Z,89.6620
2019-04-16T01:00:31.371Z,89.0455
2019-04-16T01:01:33.325Z,89.6269
2019-04-16T01:02:36.304Z,90.1335
2019-04-16T01:03:39.308Z,89.2149
2019-04-16T01:04:42.286Z,89.4469
2019-04-16T01:05:45.302Z,91.0307
2019-04-16T01:06:48.999Z,91.2795
2019-04-16T01:07:51.365Z,90.1610
2019-04-16T01:08:55.203Z,89.6635
2019-04-16T01:09:58.931Z,89.9733
2019-04-16T01:11:02.281Z,90.0740
2019-04-16T01:12:05.300Z,90.1030
2019-04-16T01:13:08.898Z,88.7602
2019-04-16T01:14:12.321Z,87.1321
2019-04-16T01:15:16.049Z,87.6768
2019-04-16T01:16:20.038Z,88.7098
2019-04-16T01:17:23.385Z,88.3726
2019-04-16T01:18:26.974Z,87.4434
2019-04-16T01:19:30.305Z,87.5624
2019-04-16T01:20:32.313Z,87.9408
2019-04-16T01:21:36.044Z,88.9769
2019-04-16T01:22:40.011Z,88.8258
2019-04-16T01:23:43.318Z,87.9103
2019-04-16T01:24:46.240Z,88.6290
2019-04-16T01:25:50.099Z,89.1783
2019-04-16T01:26:55.412Z,89.8466
2019-04-16T01:28:01.986Z,89.9062
2019-04-16T01:29:05.295Z,90.5547
2019-04-16T01:30:08.290Z,90.8354
2019-04-16T01:31:11.326Z,90.9117
2019-04-16T01:32:14.300Z,90.8064
2019-04-16T01:33:17.342Z,90.7057
2019-04-16T01:34:21.043Z,91.2459
2019-04-16T01:35:24.989Z,91.5862
2019-04-16T01:36:28.763Z,91.6274
2019-04-16T01:37:31.993Z,91.1147
2019-04-16T01:38:34.900Z,90.8476
2019-04-16T01:39:38.312Z,91.2871
2019-04-16T01:40:41.980Z,91.3893
2019-04-16T01:41:45.325Z,92.3766
2019-04-16T01:42:48.300Z,91.8044
2019-04-16T01:43:51.296Z,90.9270
2019-04-16T01:44:54.313Z,90.6020
2019-04-16T01:46:00.768Z,91.5114
2019-04-16T01:47:05.383Z,92.7123
2019-04-16T01:48:09.081Z,92.4269
2019-04-16T01:49:12.975Z,90.4677
2019-04-16T01:50:16.289Z,91.0628
2019-04-16T01:51:19.976Z,90.2220
2019-04-16T01:52:23.303Z,92.7855
2019-04-16T01:53:26.359Z,94.0383
2019-04-16T01:54:29.318Z,93.7057
2019-04-16T01:55:32.321Z,92.1660
2019-04-16T01:56:35.308Z,93.1609
2019-04-16T01:57:38.309Z,94.0856
2019-04-16T01:58:41.317Z,94.0948
2019-04-16T01:59:44.289Z,94.5693
2019-04-16T02:00:47.307Z,94.3038
2019-04-16T02:01:49.302Z,93.4951
2019-04-16T02:02:52.328Z,91.1086
2019-04-16T02:03:54.314Z,92.0836
2019-04-16T02:04:57.316Z,91.9326
2019-04-16T02:06:00.304Z,90.9270
2019-04-16T02:07:03.423Z,88.2353
2019-04-16T02:08:06.325Z,88.9632
2019-04-16T02:09:21.684Z,90.4494
2019-04-16T02:10:17.310Z,90.5226
2019-04-16T02:11:20.793Z,91.4153
2019-04-16T02:12:24.331Z,91.8746
2019-04-16T02:13:27.305Z,91.7311
2019-04-16T02:14:30.278Z,91.7693
2019-04-16T02:15:33.293Z,91.4977
2019-04-16T02:16:36.318Z,91.2108
2019-04-16T02:17:39.303Z,90.2312
2019-04-16T02:18:42.288Z,89.7780
2019-04-16T02:19:45.312Z,89.8451
2019-04-16T02:20:48.299Z,90.0801
2019-04-16T02:21:51.318Z,89.5537
2019-04-16T02:22:54.293Z,89.8009
2019-04-16T02:23:57.863Z,92.2576
2019-04-16T02:25:01.311Z,88.8106
2019-04-16T02:26:04.315Z,89.9092
2019-04-16T02:27:07.297Z,89.6803
2019-04-16T02:28:10.903Z,90.7057
2019-04-16T02:29:14.292Z,90.3410
2019-04-16T02:30:17.333Z,92.1080
2019-04-16T02:31:20.313Z,92.7932
2019-04-16T02:32:23.304Z,93.0037
2019-04-16T02:33:26.368Z,92.9961
2019-04-16T02:34:29.346Z,92.7840
2019-04-16T02:35:32.347Z,92.4926
2019-04-16T02:36:35.161Z,93.3242
2019-04-16T02:37:39.867Z,92.7428
2019-04-16T02:38:52.378Z,92.4514
2019-04-16T02:39:51.324Z,93.6400
2019-04-16T02:40:54.930Z,93.5485
2019-04-16T02:41:58.669Z,94.5113
2019-04-16T02:43:06.522Z,95.0652
2019-04-16T02:44:14.195Z,94.6288
2019-04-16T02:45:22.569Z,93.6492
2019-04-16T02:46:30.621Z,93.7469
2019-04-16T02:47:39.820Z,93.8476
2019-04-16T02:48:42.283Z,93.3928
2019-04-16T02:49:45.436Z,94.8592
2019-04-16T02:50:48.801Z,95.0698
2019-04-16T02:51:52.288Z,94.9462
2019-04-16T02:52:55.289Z,94.9828
2019-04-16T02:53:59.841Z,94.9722
2019-04-16T02:55:09.553Z,94.6563
2019-04-16T02:56:17.405Z,94.2687
2019-04-16T02:57:25.955Z,93.4813
2019-04-16T02:58:33.962Z,93.7285
2019-04-16T02:59:37.983Z,94.0169
2019-04-16T03:00:41.291Z,93.7682
2019-04-16T03:01:44.299Z,93.4447
2019-04-16T03:02:47.555Z,93.1930
2019-04-16T03:03:55.547Z,93.3288
2019-04-16T03:05:00.276Z,93.1701
2019-04-16T03:06:03.268Z,94.7295
2019-04-16T03:07:06.290Z,94.4457
2019-04-16T03:08:09.304Z,93.8415
2019-04-16T03:09:12.297Z,94.1756
2019-04-16T03:10:15.449Z,93.9330
2019-04-16T03:11:19.021Z,93.7514
2019-04-16T03:12:23.037Z,93.9055
2019-04-16T03:13:26.312Z,94.1726
2019-04-16T03:14:35.651Z,93.7514
2019-04-16T03:15:38.282Z,93.6538
2019-04-16T03:16:41.959Z,93.0785
2019-04-16T03:17:45.301Z,93.6828
2019-04-16T03:18:48.239Z,92.8206
2019-04-16T03:19:52.117Z,92.5978
2019-04-16T03:20:55.642Z,93.2372
2019-04-16T03:22:02.190Z,92.6421
2019-04-16T03:23:07.143Z,94.3603
2019-04-16T03:24:11.095Z,93.0129
2019-04-16T03:25:14.747Z,93.3791
2019-04-16T03:26:18.366Z,94.1909
2019-04-16T03:27:22.914Z,93.5760
2019-04-16T03:28:27.134Z,93.6141
2019-04-16T03:29:34.179Z,93.1884
2019-04-16T03:30:42.101Z,93.3700
2019-04-16T03:31:46.318Z,94.3542
2019-04-16T03:32:59.911Z,94.8913
2019-04-16T03:34:03.305Z,93.9834
2019-04-16T03:35:06.330Z,94.5937
2019-04-16T03:36:09.538Z,95.4940
2019-04-16T03:37:12.297Z,93.8247
2019-04-16T03:38:15.298Z,93.0220
2019-04-16T03:39:20.339Z,92.2728
2019-04-16T03:40:25.964Z,90.3807
2019-04-16T03:41:29.289Z,90.8980
2019-04-16T03:42:32.311Z,89.0776
2019-04-16T03:43:34.289Z,90.7988
2019-04-16T03:44:37.959Z,90.4494
2019-04-16T03:45:41.113Z,89.4881
2019-04-16T03:46:46.961Z,88.8701
2019-04-16T03:47:52.072Z,90.6966
2019-04-16T03:48:56.194Z,90.5104
2019-04-16T03:50:00.135Z,89.8543
2019-04-16T03:51:04.310Z,89.7536
2019-04-16T03:52:08.773Z,89.9046
2019-04-16T03:53:16.459Z,90.1579
2019-04-16T03:54:22.459Z,90.5287
2019-04-16T03:55:27.109Z,91.0689
2019-04-16T03:56:53.304Z,91.5114
2019-04-16T03:57:56.296Z,93.3440
2019-04-16T03:58:59.300Z,91.9051
2019-04-16T04:00:02.140Z,95.3292
2019-04-16T04:01:05.291Z,93.5988
2019-04-16T04:02:09.271Z,93.5073
2019-04-16T04:03:27.016Z,93.4112
2019-04-16T04:04:30.284Z,93.7682
2019-04-16T04:05:35.136Z,94.2901
2019-04-16T04:06:39.509Z,94.5388
2019-04-16T04:07:44.220Z,95.2438
2019-04-16T04:08:51.494Z,95.3307
2019-04-16T04:09:58.649Z,95.1736
2019-04-16T04:11:02.329Z,95.0912
2019-04-16T04:12:05.503Z,94.7250
2019-04-16T04:13:08.310Z,95.3857
2019-04-16T04:14:11.271Z,94.6487
2019-04-16T04:15:14.366Z,94.5342
2019-04-16T04:16:17.888Z,94.1543
2019-04-16T04:17:21.291Z,94.5647
2019-04-16T04:18:24.338Z,94.7799
2019-04-16T04:19:28.111Z,94.1680
2019-04-16T04:20:31.892Z,94.2489
2019-04-16T04:21:35.294Z,94.2077
2019-04-16T04:22:38.296Z,94.8363
2019-04-16T04:23:41.304Z,94.6990
2019-04-16T04:24:44.294Z,94.9233
2019-04-16T04:25:47.292Z,94.9813
2019-04-16T04:26:50.282Z,95.2941
2019-04-16T04:27:53.318Z,95.4681
2019-04-16T04:28:56.296Z,95.0317
2019-04-16T04:29:59.314Z,94.6151
2019-04-16T04:31:02.295Z,95.1934
2019-04-16T04:32:05.287Z,93.7194
2019-04-16T04:33:10.128Z,94.4244
2019-04-16T04:34:15.775Z,93.4768
2019-04-16T04:35:22.091Z,93.5042
2019-04-16T04:36:27.057Z,93.6919
2019-04-16T04:37:32.008Z,94.8272
2019-04-16T04:38:37.359Z,95.1965
2019-04-16T04:39:44.136Z,95.0637
2019-04-16T04:40:50.943Z,95.0500
2019-04-16T04:41:56.529Z,94.8089
2019-04-16T04:43:00.925Z,95.0149
2019-04-16T04:44:05.243Z,95.0134
2019-04-16T04:45:09.922Z,94.9508
2019-04-16T04:46:15.038Z,94.8684
2019-04-16T04:47:19.693Z,96.4736
2019-04-16T04:48:24.285Z,96.0250
2019-04-16T04:49:30.119Z,95.1461
2019-04-16T04:50:35.387Z,93.9940
2019-04-16T04:51:42.655Z,93.7057
2019-04-16T04:52:47.346Z,92.6650
2019-04-16T04:53:50.318Z,92.4773
2019-04-16T04:54:54.897Z,92.4910
2019-04-16T04:55:58.279Z,92.8939
2019-04-16T04:57:01.292Z,92.4315
2019-04-16T04:58:04.309Z,92.5689
2019-04-16T04:59:07.306Z,92.9686
2019-04-16T05:00:10.365Z,93.8323
2019-04-16T05:01:14.231Z,94.8257
2019-04-16T05:02:17.307Z,94.1680
2019-04-16T05:03:20.275Z,94.2412
2019-04-16T05:04:23.343Z,93.8521
2019-04-16T05:05:26.302Z,93.7499
2019-04-16T05:06:29.304Z,93.5271
2019-04-16T05:07:32.358Z,93.7926
2019-04-16T05:08:35.411Z,93.8659
2019-04-16T05:09:38.320Z,93.7820
2019-04-16T05:10:43.422Z,94.1115
2019-04-16T05:11:48.323Z,94.0124
2019-04-16T05:12:53.551Z,94.4778
2019-04-16T05:13:57.027Z,94.2550
2019-04-16T05:15:03.643Z,94.6883
2019-04-16T05:16:07.331Z,94.3282
2019-04-16T05:17:10.455Z,94.4045
2019-04-16T05:18:13.339Z,94.2824
2019-04-16T05:19:16.299Z,94.5388
2019-04-16T05:20:19.387Z,94.1863
2019-04-16T05:21:22.322Z,94.1894
2019-04-16T05:22:25.291Z,94.4976
2019-04-16T05:23:28.323Z,94.2351
2019-04-16T05:24:31.460Z,94.4564
2019-04-16T05:25:34.524Z,94.1314
2019-04-16T05:26:37.419Z,94.2275
2019-04-16T05:27:41.404Z,94.5373
2019-04-16T05:28:45.407Z,94.0887
2019-04-16T05:29:48.861Z,93.7820
2019-04-16T05:30:53.095Z,94.0566
2019-04-16T05:31:57.294Z,94.4594
2019-04-16T05:33:04.924Z,94.5144
2019-04-16T05:34:10.694Z,94.4427
2019-04-16T05:35:13.309Z,94.3999
2019-04-16T05:36:16.281Z,94.6029
2019-04-16T05:37:20.203Z,94.4594
2019-04-16T05:38:24.793Z,94.7707
2019-04-16T05:39:28.640Z,94.9233
2019-04-16T05:40:34.337Z,94.8547
2019-04-16T05:41:38.300Z,94.8180
2019-04-16T05:42:41.901Z,94.6807
2019-04-16T05:43:45.299Z,94.7112
2019-04-16T05:44:48.302Z,94.7936
2019-04-16T05:45:51.240Z,94.8318
2019-04-16T05:46:54.304Z,94.7768
2019-04-16T05:47:57.295Z,94.7616
2019-04-16T05:49:00.311Z,94.6380
2019-04-16T05:50:03.282Z,94.6670
2019-04-16T05:51:06.287Z,94.3633
2019-04-16T05:52:09.286Z,94.5190
2019-04-16T05:53:13.565Z,94.1024
2019-04-16T05:54:16.285Z,95.2468
2019-04-16T05:55:19.457Z,94.3267
2019-04-16T05:56:23.716Z,93.4478
2019-04-16T05:57:28.315Z,93.3059
2019-04-16T05:58:31.625Z,94.1344
2019-04-16T05:59:34.577Z,93.6370
2019-04-16T06:00:38.584Z,93.3761
2019-04-16T06:01:45.376Z,93.7224
2019-04-16T06:02:50.552Z,94.0169
2019-04-16T06:03:54.318Z,93.3898
2019-04-16T06:04:57.275Z,92.9671
2019-04-16T06:06:00.311Z,93.0510
2019-04-16T06:07:07.403Z,93.0907
2019-04-16T06:08:11.276Z,91.7876
2019-04-16T06:09:14.312Z,92.4773
2019-04-16T06:10:18.887Z,94.3175
2019-04-16T06:11:29.140Z,92.2042
2019-04-16T06:12:32.567Z,93.1365
2019-04-16T06:13:35.299Z,91.1223
2019-04-16T06:14:39.195Z,90.3868
2019-04-16T06:15:43.067Z,89.8970
2019-04-16T06:16:46.297Z,89.0761
2019-04-16T06:17:49.981Z,89.9779
2019-04-16T06:18:53.274Z,89.9916
2019-04-16T06:19:56.276Z,91.6533
2019-04-16T06:20:59.316Z,90.3181
2019-04-16T06:22:02.328Z,88.9632
2019-04-16T06:23:05.327Z,90.0160
2019-04-16T06:24:08.748Z,89.1676
2019-04-16T06:25:12.101Z,88.6595
2019-04-16T06:26:16.854Z,89.1463
2019-04-16T06:27:20.981Z,87.3976
2019-04-16T06:28:24.479Z,87.5624
2019-04-16T06:29:28.997Z,88.0247
2019-04-16T06:30:33.886Z,88.2307
2019-04-16T06:31:39.236Z,88.9860
2019-04-16T06:32:43.325Z,87.9637
2019-04-16T06:33:47.286Z,87.8767
2019-04-16T06:34:51.033Z,89.2409
2019-04-16T06:35:54.273Z,87.3915
2019-04-16T06:36:57.481Z,87.9469
2019-04-16T06:38:01.027Z,88.6152
2019-04-16T06:39:04.292Z,88.1880
2019-04-16T06:40:08.345Z,88.6183
2019-04-16T06:41:13.866Z,89.4240
2019-04-16T06:42:21.697Z,89.2271
2019-04-16T06:43:27.373Z,90.4952
2019-04-16T06:44:34.779Z,90.9895
2019-04-16T06:45:39.372Z,89.6666
2019-04-16T06:46:42.996Z,90.5516
2019-04-16T06:47:46.332Z,90.7073
2019-04-16T06:48:50.199Z,90.8019
2019-04-16T06:49:54.180Z,89.3980
2019-04-16T06:50:58.213Z,90.3212
2019-04-16T06:52:01.484Z,88.7022
2019-04-16T06:53:05.336Z,86.9429
2019-04-16T06:54:08.398Z,88.4092
2019-04-16T06:55:11.302Z,87.3869
2019-04-16T06:56:14.510Z,86.4164
2019-04-16T06:57:17.310Z,86.4347
2019-04-16T06:58:20.301Z,88.1117
2019-04-16T06:59:23.315Z,85.7267
2019-04-16T07:00:26.314Z,85.1362
2019-04-16T07:01:29.365Z,86.1845
2019-04-16T07:02:32.305Z,85.4688
2019-04-16T07:03:35.282Z,87.2129
2019-04-16T07:04:38.289Z,85.2308
2019-04-16T07:05:41.283Z,86.4485
2019-04-16T07:06:44.361Z,85.7267
2019-04-16T07:07:47.300Z,85.9098
2019-04-16T07:08:50.815Z,85.1896
2019-04-16T07:09:56.775Z,84.8432
2019-04-16T07:11:01.328Z,82.3575
2019-04-16T07:12:04.287Z,82.9618
2019-04-16T07:13:09.960Z,82.3163
2019-04-16T07:14:16.868Z,79.1486
2019-04-16T07:15:24.220Z,82.5162
2019-04-16T07:16:29.215Z,79.8718
2019-04-16T07:17:33.770Z,79.5956
2019-04-16T07:18:38.641Z,78.3520
2019-04-16T07:19:42.979Z,79.3133
2019-04-16T07:20:47.015Z,77.9065
2019-04-16T07:21:50.925Z,80.5676
2019-04-16T07:22:53.597Z,79.8291
2019-04-16T07:23:58.395Z,78.6816
2019-04-16T07:25:04.445Z,80.2594
2019-04-16T07:26:13.599Z,79.4873
2019-04-16T07:27:20.074Z,79.4308
2019-04-16T07:28:25.691Z,81.1353
2019-04-16T07:29:32.756Z,80.2274
2019-04-16T07:30:40.009Z,79.4171
2019-04-16T07:31:44.376Z,79.6689
2019-04-16T07:32:49.121Z,80.3891
2019-04-16T07:33:52.965Z,80.8545
2019-04-16T07:34:56.251Z,81.9944
2019-04-16T07:35:59.254Z,81.5198
2019-04-16T07:37:04.754Z,80.1404
2019-04-16T07:38:11.284Z,81.8631
2019-04-16T07:39:28.662Z,80.0992
2019-04-16T07:40:23.294Z,80.0076
2019-04-16T07:41:27.284Z,79.0005
2019-04-16T07:42:30.261Z,80.8774
2019-04-16T07:43:34.355Z,79.2752
2019-04-16T07:44:39.281Z,79.2035
2019-04-16T07:45:44.362Z,80.2411
2019-04-16T07:46:48.320Z,79.4781
2019-04-16T07:47:53.371Z,78.8373
2019-04-16T07:48:56.263Z,80.3113
2019-04-16T07:50:01.285Z,78.9380
2019-04-16T07:51:05.467Z,77.3343
2019-04-16T07:52:12.148Z,79.8703
2019-04-16T07:53:17.240Z,78.8373
2019-04-16T07:54:21.769Z,78.3597
2019-04-16T07:55:26.655Z,77.1206
2019-04-16T07:56:31.088Z,77.1389
2019-04-16T07:57:35.294Z,79.4858
2019-04-16T07:58:38.779Z,76.5484
2019-04-16T07:59:42.300Z,76.2783
2019-04-16T08:00:45.403Z,76.3333
2019-04-16T08:01:48.792Z,75.1019
2019-04-16T08:02:53.867Z,75.0835
2019-04-16T08:04:00.926Z,76.3592
2019-04-16T08:05:09.097Z,76.6522
2019-04-16T08:06:14.339Z,75.0744
2019-04-16T08:07:20.147Z,73.5531
2019-04-16T08:08:25.490Z,77.0733
2019-04-16T08:09:30.106Z,72.9335
2019-04-16T08:10:33.397Z,77.0092
2019-04-16T08:11:37.374Z,74.9386
2019-04-16T08:12:41.977Z,73.5058
2019-04-16T08:13:45.823Z,72.1065
2019-04-16T08:14:49.252Z,74.9310
2019-04-16T08:15:52.298Z,75.9030
2019-04-16T08:16:55.260Z,74.2855
2019-04-16T08:17:58.605Z,73.8811
2019-04-16T08:19:02.083Z,73.6706
2019-04-16T08:20:06.063Z,76.6430
2019-04-16T08:21:12.135Z,74.0414
2019-04-16T08:22:16.715Z,73.6996
2019-04-16T08:23:20.714Z,73.9467
2019-04-16T08:24:25.894Z,72.6268
2019-04-16T08:25:33.527Z,73.6355
2019-04-16T08:26:37.342Z,75.1553
2019-04-16T08:27:40.326Z,72.6818
2019-04-16T08:28:43.342Z,72.6131
2019-04-16T08:29:48.890Z,72.9030
2019-04-16T08:30:52.336Z,72.2240
2019-04-16T08:31:55.924Z,75.6130
2019-04-16T08:33:05.449Z,75.9213
2019-04-16T08:34:08.537Z,72.7520
2019-04-16T08:35:11.303Z,73.1624
2019-04-16T08:36:15.092Z,72.8054
2019-04-16T08:37:18.807Z,70.4860
2019-04-16T08:38:22.263Z,71.2367
2019-04-16T08:39:24.911Z,72.1782
2019-04-16T08:40:28.315Z,71.0674
2019-04-16T08:41:31.313Z,71.5801
2019-04-16T08:42:44.468Z,73.6171
2019-04-16T08:43:45.696Z,71.4961
2019-04-16T08:44:48.640Z,69.4133
2019-04-16T08:45:52.810Z,70.8476
2019-04-16T08:46:58.653Z,71.6213
2019-04-16T08:48:02.321Z,68.5069
2019-04-16T08:49:05.752Z,70.6813
2019-04-16T08:50:11.365Z,69.3629
2019-04-16T08:51:29.338Z,68.2017
2019-04-16T08:52:24.777Z,70.8324
2019-04-16T08:53:29.733Z,70.6126
2019-04-16T08:54:33.689Z,68.9342
2019-04-16T08:55:35.843Z,68.8319
2019-04-16T08:56:43.378Z,74.0566
2019-04-16T08:57:47.175Z,70.6722
2019-04-16T08:58:51.376Z,71.4427
2019-04-16T08:59:54.990Z,70.5592
2019-04-16T09:00:59.157Z,70.3395
2019-04-16T09:02:03.038Z,70.0130
2019-04-16T09:03:06.276Z,69.9138
2019-04-16T09:04:09.722Z,69.9580
2019-04-16T09:05:12.994Z,69.2531
2019-04-16T09:06:16.337Z,71.7128
2019-04-16T09:07:20.080Z,72.2850
2019-04-16T09:08:23.938Z,69.9962
2019-04-16T09:09:27.245Z,70.6584
2019-04-16T09:10:32.199Z,71.6152
2019-04-16T09:11:36.155Z,69.5140
2019-04-16T09:12:44.968Z,69.1676
2019-04-16T09:13:48.461Z,67.8752
2019-04-16T09:14:54.836Z,70.2968
2019-04-16T09:16:00.056Z,71.4504
2019-04-16T09:17:03.520Z,68.9342
2019-04-16T09:18:07.481Z,69.0974
2019-04-16T09:19:10.454Z,67.8080
2019-04-16T09:20:15.025Z,70.1412
2019-04-16T09:21:18.972Z,67.5273
2019-04-16T09:22:22.370Z,66.1006
2019-04-16T09:23:26.625Z,68.1727
2019-04-16T09:24:30.414Z,69.8711
2019-04-16T09:25:34.111Z,65.2796
2019-04-16T09:26:37.296Z,67.3716
2019-04-16T09:27:40.240Z,65.3315
2019-04-16T09:28:43.622Z,66.1830
2019-04-16T09:29:55.827Z,67.2267
2019-04-16T09:31:00.166Z,63.1983
2019-04-16T09:32:03.297Z,63.3066
2019-04-16T09:33:06.319Z,64.4511
2019-04-16T09:34:09.354Z,67.5090
2019-04-16T09:35:18.422Z,62.9999
2019-04-16T09:36:22.137Z,67.7836
2019-04-16T09:37:25.529Z,63.8529
2019-04-16T09:38:33.265Z,62.6673
2019-04-16T09:39:37.673Z,62.8824
2019-04-16T09:40:40.277Z,61.9013
2019-04-16T09:42:01.805Z,63.0137
2019-04-16T09:43:16.520Z,60.5875
2019-04-16T09:44:15.011Z,60.3006
2019-04-16T09:45:18.266Z,59.2279
2019-04-16T09:46:44.727Z,61.6190
2019-04-16T09:47:32.769Z,60.3510
2019-04-16T09:48:36.333Z,60.6714
2019-04-16T09:49:39.389Z,59.8779
2019-04-16T09:50:46.635Z,61.5488
2019-04-16T09:51:51.192Z,64.7501
2019-04-16T09:52:57.155Z,59.1775
2019-04-16T09:54:05.551Z,62.9038
2019-04-16T09:55:15.258Z,60.6668
2019-04-16T09:56:23.408Z,63.0137
2019-04-16T09:57:32.286Z,61.8143
2019-04-16T09:58:38.072Z,62.4155
2019-04-16T09:59:44.781Z,60.7401
2019-04-16T10:00:51.308Z,58.5595
2019-04-16T10:01:54.328Z,63.4485
2019-04-16T10:03:00.974Z,60.2502
2019-04-16T10:04:04.352Z,58.7396
2019-04-16T10:05:07.323Z,60.4471
2019-04-16T10:06:19.056Z,61.8143
2019-04-16T10:07:23.536Z,58.8891
2019-04-16T10:08:29.235Z,59.9741
2019-04-16T10:09:37.635Z,61.3077
2019-04-16T10:10:40.329Z,57.9507
2019-04-16T10:11:43.295Z,57.6593
2019-04-16T10:12:46.293Z,58.4192
2019-04-16T10:13:49.299Z,56.9863
2019-04-16T10:14:55.569Z,60.0488
2019-04-16T10:15:58.380Z,57.8103
2019-04-16T10:17:01.378Z,62.4826
2019-04-16T10:18:04.366Z,58.9166
2019-04-16T10:19:08.332Z,61.3336
2019-04-16T10:20:12.717Z,61.6632
2019-04-16T10:21:20.117Z,55.5764
2019-04-16T10:22:23.308Z,59.2111
2019-04-16T10:23:29.688Z,58.1903
2019-04-16T10:24:32.333Z,55.5566
2019-04-16T10:25:47.530Z,53.4417
2019-04-16T10:26:51.310Z,56.7758
2019-04-16T10:27:54.303Z,57.6394
2019-04-16T10:28:57.293Z,55.9136
2019-04-16T10:30:00.358Z,55.4849
2019-04-16T10:31:14.708Z,57.0764
2019-04-16T10:32:18.182Z,54.2855
2019-04-16T10:33:21.585Z,57.5341
2019-04-16T10:34:29.276Z,52.3613
2019-04-16T10:35:32.405Z,52.1553
2019-04-16T10:36:40.756Z,51.8807
2019-04-16T10:37:53.087Z,52.8069
2019-04-16T10:38:57.357Z,54.8470
2019-04-16T10:40:00.389Z,54.2031
2019-04-16T10:41:03.359Z,54.4991
2019-04-16T10:42:06.916Z,54.5403
2019-04-16T10:43:10.273Z,57.3251
2019-04-16T10:44:13.330Z,52.9473
2019-04-16T10:45:16.353Z,55.2178
2019-04-16T10:46:21.496Z,50.3212
2019-04-16T10:47:24.373Z,54.4625
2019-04-16T10:48:27.302Z,52.2148
2019-04-16T10:49:30.514Z,51.9768
2019-04-16T10:50:33.397Z,51.1849
2019-04-16T10:51:37.054Z,52.5490
2019-04-16T10:52:40.652Z,52.0745
2019-04-16T10:53:45.142Z,51.6655
2019-04-16T10:54:48.369Z,52.2118
2019-04-16T10:55:51.279Z,52.6543
2019-04-16T10:56:57.902Z,51.8441
2019-04-16T10:58:02.379Z,49.3309
2019-04-16T10:59:06.100Z,49.8756
2019-04-16T11:00:10.108Z,54.3938
2019-04-16T11:01:14.018Z,51.8944
2019-04-16T11:02:17.361Z,52.2164
2019-04-16T11:03:20.347Z,51.4824
2019-04-16T11:04:23.276Z,49.7948
2019-04-16T11:05:26.457Z,53.7865
2019-04-16T11:06:29.278Z,53.7316
2019-04-16T11:07:32.545Z,54.3267
2019-04-16T11:08:36.275Z,52.3812
2019-04-16T11:09:39.359Z,53.3959
2019-04-16T11:10:42.286Z,52.7642
2019-04-16T11:11:45.330Z,51.9417
2019-04-16T11:12:48.875Z,54.5953
2019-04-16T11:13:59.603Z,52.3842
2019-04-16T11:15:03.355Z,52.7871
2019-04-16T11:16:08.820Z,53.2006
2019-04-16T11:17:12.639Z,53.3959
2019-04-16T11:18:20.399Z,51.4107
2019-04-16T11:19:24.571Z,54.1711
2019-04-16T12:16:01.268Z,39.6643
2019-04-16T12:17:02.353Z,37.9706
2019-04-16T12:18:03.381Z,37.1984
2019-04-16T12:19:04.381Z,35.0652
2019-04-16T12:20:05.378Z,35.1431
2019-04-16T12:21:06.380Z,33.3227
2019-04-16T12:22:07.359Z,33.5882
2019-04-16T12:30:14.110Z,36.5774
2019-04-16T12:31:17.070Z,33.4401
2019-04-16T12:32:18.400Z,35.2773
2019-04-16T12:36:59.065Z,32.4437
2019-04-16T12:38:00.387Z,34.1833
2019-04-16T12:39:01.374Z,33.8109
2019-04-16T12:40:02.592Z,35.1034
2019-04-16T12:41:03.383Z,33.1930
